Time;durP1;ratioP1;P1;durP2;ratioP2;P2;SDS_P1;SDS_P2;PMS_P1;PMS_P2;Temp;Humidity;BMP_temperature;BMP_pressure;BME280_temperature;BME280_humidity;BME280_pressure;Samples;Min_cycle;Max_cycle;Signal;HPM_P1;HPM_P2
2023/08/22 00:02:19;;;;;;;;;;;;;;;;;;5071999;28;19921;-65
2023/08/22 00:04:45;;;;;;;;;;;;;;;;;;5069001;28;20354;-66
2023/08/22 00:07:11;;;;;;;;;;;;;;;;;;5074207;28;19926;-66
2023/08/22 00:09:37;;;;;;;;;;;;;;;;;;5070366;28;19920;-65
2023/08/22 00:12:03;;;;;;;;;;;;;;;;;;5070066;28;19939;-65
2023/08/22 00:14:29;;;;;;;;;;;;;;;;;;5068490;28;19925;-65
2023/08/22 00:16:55;;;;;;;;;;;;;;;;;;5066787;28;20554;-65
2023/08/22 00:19:21;;;;;;;;;;;;;;;;;;5057660;28;19967;-65
2023/08/22 00:21:47;;;;;;;;;;;;;;;;;;5071155;28;19925;-65
2023/08/22 00:24:13;;;;;;;;;;;;;;;;;;5056318;28;19935;-65
2023/08/22 00:26:38;;;;;;;;;;;;;;;;;;5070235;28;20286;-65
2023/08/22 00:29:04;;;;;;;;;;;;;;;;;;5069464;28;19927;-65
2023/08/22 00:31:30;;;;;;;;;;;;;;;;;;5068914;28;19924;-66
2023/08/22 00:33:58;;;;;;;;;;;;;;;;;;5073577;28;19924;-66
2023/08/22 00:36:24;;;;;;;;;;;;;;;;;;5061274;28;19931;-65
2023/08/22 00:38:50;;;;;;;;;;;;;;;;;;5071033;28;19920;-66
2023/08/22 00:41:16;;;;;;;;;;;;;;;;;;5071784;28;19925;-65
2023/08/22 00:43:42;;;;;;;;;;;;;;;;;;5073585;28;20591;-66
2023/08/22 00:46:08;;;;;;;;;;;;;;;;;;5069308;28;19925;-66
2023/08/22 00:48:34;;;;;;;;;;;;;;;;;;5068842;28;20476;-66
2023/08/22 00:51:00;;;;;;;;;;;;;;;;;;5060870;28;19920;-66
2023/08/22 00:53:26;;;;;;;;;;;;;;;;;;5070664;28;19921;-65
2023/08/22 00:55:51;;;;;;;;;;;;;;;;;;5062071;28;19974;-65
2023/08/22 00:58:17;;;;;;;;;;;;;;;;;;5071547;28;19920;-66
2023/08/22 01:00:44;;;;;;;;;;;;;;;;;;5062085;28;20072;-65
2023/08/22 01:03:10;;;;;;;;;;;;;;;;;;5065857;28;19932;-65
2023/08/22 01:05:36;;;;;;;;;;;;;;;;;;5065712;28;19920;-65
2023/08/22 01:08:02;;;;;;;;;;;;;;;;;;5064842;28;20586;-66
2023/08/22 01:10:28;;;;;;;;;;;;;;;;;;5035378;28;19924;-65
2023/08/22 01:12:54;;;;;;;;;;;;;;;;;;5068376;28;19967;-66
2023/08/22 01:15:21;;;;;;;;;;;;;;;;;;5068095;28;19973;-66
2023/08/22 01:17:47;;;;;;;;;;;;;;;;;;5064186;28;19963;-66
2023/08/22 01:20:12;;;;;;;;;;;;;;;;;;5068578;28;19975;-66
2023/08/22 01:22:38;;;;;;;;;;;;;;;;;;5070114;28;19924;-65
2023/08/22 01:25:04;;;;;;;;;;;;;;;;;;5070082;28;20382;-66
2023/08/22 01:27:30;;;;;;;;;;;;;;;;;;5056700;28;19925;-66
2023/08/22 01:29:56;;;;;;;;;;;;;;;;;;5065433;28;19928;-65
2023/08/22 01:32:22;;;;;;;;;;;;;;;;;;5064781;28;19970;-66
2023/08/22 01:34:48;;;;;;;;;;;;;;;;;;5054985;28;20277;-66
2023/08/22 01:37:14;;;;;;;;;;;;;;;;;;5067722;28;19970;-65
2023/08/22 01:39:40;;;;;;;;;;;;;;;;;;5065367;28;20290;-65
2023/08/22 01:42:06;;;;;;;;;;;;;;;;;;5052892;28;19920;-65
2023/08/22 01:44:31;;;;;;;;;;;;;;;;;;5060193;28;19943;-66
2023/08/22 01:46:57;;;;;;;;;;;;;;;;;;5072309;28;19928;-66
2023/08/22 01:49:23;;;;;;;;;;;;;;;;;;5064015;28;19928;-65
2023/08/22 01:51:49;;;;;;;;;;;;;;;;;;5058906;28;19921;-65
2023/08/22 01:54:15;;;;;;;;;;;;;;;;;;5050001;28;20007;-65
2023/08/22 01:56:41;;;;;;;;;;;;;;;;;;5052327;28;20570;-65
2023/08/22 01:59:07;;;;;;;;;;;;;;;;;;5063782;28;20401;-65
2023/08/22 02:01:33;;;;;;;;;;;;;;;;;;5058509;28;19986;-65
2023/08/22 02:04:03;;;;;;;;;;;;;;;;;;5065129;28;20345;-64
2023/08/22 02:06:29;;;;;;;;;;;;;;;;;;5053102;28;19935;-64
2023/08/22 02:08:55;;;;;;;;;;;;;;;;;;5059293;28;19920;-63
2023/08/22 02:11:21;;;;;;;;;;;;;;;;;;5070704;28;19932;-63
2023/08/22 02:13:47;;;;;;;;;;;;;;;;;;5051437;28;19963;-64
2023/08/22 02:16:13;;;;;;;;;;;;;;;;;;5070498;28;20371;-64
2023/08/22 02:18:39;;;;;;;;;;;;;;;;;;5066154;28;19928;-64
2023/08/22 02:21:05;;;;;;;;;;;;;;;;;;5068945;28;19928;-63
2023/08/22 02:23:32;;;;;;;;;;;;;;;;;;5071476;28;20389;-63
2023/08/22 02:25:58;;;;;;;;;;;;;;;;;;5062890;28;19921;-64
2023/08/22 02:28:24;;;;;;;;;;;;;;;;;;5070627;28;19947;-63
2023/08/22 02:30:49;;;;;;;;;;;;;;;;;;5049331;28;19927;-65
2023/08/22 02:33:15;;;;;;;;;;;;;;;;;;5069872;28;19951;-65
2023/08/22 02:35:41;;;;;;;;;;;;;;;;;;5039635;28;19925;-64
2023/08/22 02:38:07;;;;;;;;;;;;;;;;;;5074883;28;19931;-64
2023/08/22 02:40:34;;;;;;;;;;;;;;;;;;5053890;28;20593;-65
2023/08/22 02:43:00;;;;;;;;;;;;;;;;;;5070473;28;19920;-64
2023/08/22 02:45:26;;;;;;;;;;;;;;;;;;5062003;28;19931;-65
2023/08/22 02:47:53;;;;;;;;;;;;;;;;;;5067575;28;20396;-65
2023/08/22 02:50:19;;;;;;;;;;;;;;;;;;5054610;28;20583;-65
2023/08/22 02:52:45;;;;;;;;;;;;;;;;;;5062435;28;20012;-65
2023/08/22 02:55:10;;;;;;;;;;;;;;;;;;5068784;28;19920;-65
2023/08/22 02:57:36;;;;;;;;;;;;;;;;;;5058515;28;20574;-64
2023/08/22 03:00:02;;;;;;;;;;;;;;;;;;5067143;28;19932;-64
2023/08/22 03:02:28;;;;;;;;;;;;;;;;;;5066877;28;19997;-64
2023/08/22 03:04:54;;;;;;;;;;;;;;;;;;5051790;28;19947;-64
2023/08/22 03:07:20;;;;;;;;;;;;;;;;;;5060899;28;19951;-64
2023/08/22 03:09:46;;;;;;;;;;;;;;;;;;5065672;28;19928;-64
2023/08/22 03:12:12;;;;;;;;;;;;;;;;;;5063970;28;19982;-64
2023/08/22 03:14:38;;;;;;;;;;;;;;;;;;5064728;28;19920;-65
2023/08/22 03:17:04;;;;;;;;;;;;;;;;;;5061717;28;19966;-64
2023/08/22 03:19:29;;;;;;;;;;;;;;;;;;5061317;28;19964;-64
2023/08/22 03:21:55;;;;;;;;;;;;;;;;;;5065618;28;19924;-65
2023/08/22 03:24:21;;;;;;;;;;;;;;;;;;5064476;28;19925;-64
2023/08/22 03:26:47;;;;;;;;;;;;;;;;;;5052046;28;20343;-64
2023/08/22 03:29:14;;;;;;;;;;;;;;;;;;5043466;28;20270;-64
2023/08/22 03:31:40;;;;;;;;;;;;;;;;;;5046945;28;19927;-64
2023/08/22 03:34:05;;;;;;;;;;;;;;;;;;5035987;28;19921;-64
2023/08/22 03:36:31;;;;;;;;;;;;;;;;;;5070945;28;19930;-65
2023/08/22 03:38:57;;;;;;;;;;;;;;;;;;5072469;28;20328;-64
2023/08/22 03:41:23;;;;;;;;;;;;;;;;;;5071864;28;19924;-64
2023/08/22 03:43:49;;;;;;;;;;;;;;;;;;5074560;28;19970;-64
2023/08/22 03:46:15;;;;;;;;;;;;;;;;;;5070786;28;20628;-65
2023/08/22 03:48:41;;;;;;;;;;;;;;;;;;5057521;28;19931;-64
2023/08/22 03:51:07;;;;;;;;;;;;;;;;;;5070079;28;19921;-64
2023/08/22 03:53:33;;;;;;;;;;;;;;;;;;5073888;28;19932;-65
2023/08/22 03:55:58;;;;;;;;;;;;;;;;;;5070143;28;19920;-64
2023/08/22 03:58:24;;;;;;;;;;;;;;;;;;5055636;28;19931;-64
2023/08/22 04:00:50;;;;;;;;;;;;;;;;;;5070258;28;19932;-64
2023/08/22 04:03:16;;;;;;;;;;;;;;;;;;5071723;28;20319;-64
2023/08/22 04:05:42;;;;;;;;;;;;;;;;;;5067480;28;19998;-64
2023/08/22 04:08:08;;;;;;;;;;;;;;;;;;5075427;28;20003;-64
2023/08/22 04:10:34;;;;;;;;;;;;;;;;;;5055390;28;20266;-64
2023/08/22 04:13:00;;;;;;;;;;;;;;;;;;5055080;28;19924;-64
2023/08/22 04:15:26;;;;;;;;;;;;;;;;;;5068512;28;19943;-65
2023/08/22 04:17:51;;;;;;;;;;;;;;;;;;5074244;28;19930;-65
2023/08/22 04:20:17;;;;;;;;;;;;;;;;;;5056112;28;19924;-64
2023/08/22 04:22:43;;;;;;;;;;;;;;;;;;5065891;28;19958;-64
2023/08/22 04:25:09;;;;;;;;;;;;;;;;;;5071136;28;19973;-65
2023/08/22 04:27:35;;;;;;;;;;;;;;;;;;5070615;28;20341;-64
2023/08/22 04:30:01;;;;;;;;;;;;;;;;;;5071152;28;19990;-64
2023/08/22 04:32:27;;;;;;;;;;;;;;;;;;5060478;28;20009;-64
2023/08/22 04:34:53;;;;;;;;;;;;;;;;;;5063069;28;19921;-65
2023/08/22 04:37:19;;;;;;;;;;;;;;;;;;5062088;28;19935;-64
2023/08/22 04:39:44;;;;;;;;;;;;;;;;;;5072095;28;19925;-65
2023/08/22 04:42:10;;;;;;;;;;;;;;;;;;5062856;28;19924;-64
2023/08/22 04:44:36;;;;;;;;;;;;;;;;;;5071381;28;19927;-64
2023/08/22 04:47:02;;;;;;;;;;;;;;;;;;5064709;28;20270;-64
2023/08/22 04:49:28;;;;;;;;;;;;;;;;;;5067046;28;19932;-65
2023/08/22 04:51:54;;;;;;;;;;;;;;;;;;5064758;28;20019;-65
2023/08/22 04:54:20;;;;;;;;;;;;;;;;;;5052119;28;20309;-66
2023/08/22 04:56:46;;;;;;;;;;;;;;;;;;5047859;28;19931;-64
2023/08/22 04:59:12;;;;;;;;;;;;;;;;;;5070580;28;19928;-64
2023/08/22 05:01:38;;;;;;;;;;;;;;;;;;5065994;28;19929;-64
2023/08/22 05:04:04;;;;;;;;;;;;;;;;;;5071066;28;19921;-64
2023/08/22 05:06:29;;;;;;;;;;;;;;;;;;5065552;28;20301;-64
2023/08/22 05:08:55;;;;;;;;;;;;;;;;;;5072164;28;19971;-66
2023/08/22 05:11:21;;;;;;;;;;;;;;;;;;5065156;28;19929;-65
2023/08/22 05:13:47;;;;;;;;;;;;;;;;;;5068035;28;20496;-64
2023/08/22 05:16:13;;;;;;;;;;;;;;;;;;5071491;28;19931;-64
2023/08/22 05:18:39;;;;;;;;;;;;;;;;;;5067141;28;19956;-64
2023/08/22 05:21:05;;;;;;;;;;;;;;;;;;5052163;28;19924;-64
2023/08/22 05:23:31;;;;;;;;;;;;;;;;;;5069767;28;19931;-64
2023/08/22 05:25:57;;;;;;;;;;;;;;;;;;5072649;28;19967;-64
2023/08/22 05:28:23;;;;;;;;;;;;;;;;;;5067982;28;19981;-64
2023/08/22 05:30:48;;;;;;;;;;;;;;;;;;5070497;28;20251;-64
2023/08/22 05:33:14;;;;;;;;;;;;;;;;;;5046231;28;19920;-64
2023/08/22 05:35:40;;;;;;;;;;;;;;;;;;5070645;28;19925;-65
2023/08/22 05:38:06;;;;;;;;;;;;;;;;;;5076167;22;19935;-64
2023/08/22 05:40:32;;;;;;;;;;;;;;;;;;5091610;28;19924;-64
2023/08/22 05:42:58;;;;;;;;;;;;;;;;;;5092554;28;20540;-64
2023/08/22 05:45:24;;;;;;;;;;;;;;;;;;5091381;28;20396;-65
2023/08/22 05:47:50;;;;;;;;;;;;;;;;;;5092684;28;20006;-64
2023/08/22 05:50:15;;;;;;;;;;;;;;;;;;5088532;28;19942;-64
2023/08/22 05:52:41;;;;;;;;;;;;;;;;;;5092498;28;19924;-64
2023/08/22 05:55:07;;;;;;;;;;;;;;;;;;5090937;28;19920;-64
2023/08/22 05:57:33;;;;;;;;;;;;;;;;;;5091687;28;19928;-65
2023/08/22 05:59:59;;;;;;;;;;;;;;;;;;5089277;28;20009;-65
2023/08/22 06:02:25;;;;;;;;;;;;;;;;;;5084881;28;20596;-65
2023/08/22 06:04:51;;;;;;;;;;;;;;;;;;5083694;28;19924;-65
2023/08/22 06:07:17;;;;;;;;;;;;;;;;;;5079858;28;19931;-65
2023/08/22 06:09:43;;;;;;;;;;;;;;;;;;5083628;28;19974;-66
2023/08/22 06:12:09;;;;;;;;;;;;;;;;;;5087273;28;19920;-65
2023/08/22 06:14:35;;;;;;;;;;;;;;;;;;5091139;28;19934;-65
2023/08/22 06:17:00;;;;;;;;;;;;;;;;;;5072961;28;20370;-66
2023/08/22 06:19:26;;;;;;;;;;;;;;;;;;5092192;28;19920;-64
2023/08/22 06:21:52;;;;;;;;;;;;;;;;;;5073402;28;19943;-65
2023/08/22 06:24:18;;;;;;;;;;;;;;;;;;5083723;28;20011;-65
2023/08/22 06:26:44;;;;;;;;;;;;;;;;;;5085131;28;20012;-65
2023/08/22 06:29:10;;;;;;;;;;;;;;;;;;5092244;28;19927;-64
2023/08/22 06:31:36;;;;;;;;;;;;;;;;;;5091134;28;20478;-65
2023/08/22 06:34:02;;;;;;;;;;;;;;;;;;5080921;28;19985;-64
2023/08/22 06:36:28;;;;;;;;;;;;;;;;;;5088296;28;19982;-65
2023/08/22 06:38:54;;;;;;;;;;;;;;;;;;5089594;28;21607;-65
2023/08/22 06:41:20;;;;;;;;;;;;;;;;;;5077456;28;20009;-64
2023/08/22 06:43:46;;;;;;;;;;;;;;;;;;5078909;28;19924;-64
2023/08/22 06:46:12;;;;;;;;;;;;;;;;;;5089159;28;19956;-65
2023/08/22 06:48:37;;;;;;;;;;;;;;;;;;5089571;28;20008;-65
2023/08/22 06:51:03;;;;;;;;;;;;;;;;;;5090285;28;19924;-65
2023/08/22 06:53:29;;;;;;;;;;;;;;;;;;5089503;28;19931;-65
2023/08/22 06:55:55;;;;;;;;;;;;;;;;;;5086782;28;20365;-65
2023/08/22 06:58:21;;;;;;;;;;;;;;;;;;5088267;28;20014;-65
2023/08/22 07:00:47;;;;;;;;;;;;;;;;;;5090131;28;19928;-69
2023/08/22 07:03:13;;;;;;;;;;;;;;;;;;5077644;28;20569;-65
2023/08/22 07:05:39;;;;;;;;;;;;;;;;;;5090432;28;20014;-65
2023/08/22 07:08:05;;;;;;;;;;;;;;;;;;5087970;28;19927;-65
2023/08/22 07:10:31;;;;;;;;;;;;;;;;;;5065125;28;21385;-65
2023/08/22 07:12:57;;;;;;;;;;;;;;;;;;5083340;28;19928;-64
2023/08/22 07:15:23;;;;;;;;;;;;;;;;;;5087330;28;20009;-65
2023/08/22 07:17:49;;;;;;;;;;;;;;;;;;5090197;28;19920;-66
2023/08/22 07:20:14;;;;;;;;;;;;;;;;;;5085103;28;20545;-66
2023/08/22 07:22:40;;;;;;;;;;;;;;;;;;5073291;28;19931;-65
2023/08/22 07:25:06;;;;;;;;;;;;;;;;;;5090776;28;19947;-65
2023/08/22 07:27:32;;;;;;;;;;;;;;;;;;5089988;28;19920;-65
2023/08/22 07:29:58;;;;;;;;;;;;;;;;;;5090456;28;19959;-65
2023/08/22 07:32:24;;;;;;;;;;;;;;;;;;5090099;28;20451;-66
2023/08/22 07:34:50;;;;;;;;;;;;;;;;;;5098105;28;19924;-65
2023/08/22 07:37:16;;;;;;;;;;;;;;;;;;5084126;28;19920;-65
2023/08/22 07:39:42;;;;;;;;;;;;;;;;;;5079445;28;19935;-65
2023/08/22 07:42:08;;;;;;;;;;;;;;;;;;5088649;28;20276;-66
2023/08/22 07:44:34;;;;;;;;;;;;;;;;;;5090992;28;19928;-65
2023/08/22 07:47:00;;;;;;;;;;;;;;;;;;5083938;28;19928;-65
2023/08/22 07:49:25;;;;;;;;;;;;;;;;;;5076114;28;19926;-65
2023/08/22 07:51:51;;;;;;;;;;;;;;;;;;5090381;28;20295;-65
2023/08/22 07:54:17;;;;;;;;;;;;;;;;;;5088420;28;19956;-65
2023/08/22 07:56:44;;;;;;;;;;;;;;;;;;5071544;28;19924;-65
2023/08/22 07:59:10;;;;;;;;;;;;;;;;;;5089396;28;20246;-65
2023/08/22 08:01:36;;;;;;;;;;;;;;;;;;5076538;28;19930;-65
2023/08/22 08:04:02;;;;;;;;;;;;;;;;;;5079238;28;19920;-65
2023/08/22 08:06:28;;;;;;;;;;;;;;;;;;5086624;28;19920;-65
2023/08/22 08:08:54;;;;;;;;;;;;;;;;;;5085041;28;19928;-64
2023/08/22 08:11:20;;;;;;;;;;;;;;;;;;5087267;28;19927;-64
2023/08/22 08:13:46;;;;;;;;;;;;;;;;;;5089091;28;20266;-65
2023/08/22 08:16:11;;;;;;;;;;;;;;;;;;5085673;28;19959;-65
2023/08/22 08:18:38;;;;;;;;;;;;;;;;;;5088802;28;19924;-64
2023/08/22 08:21:04;;;;;;;;;;;;;;;;;;5091931;28;19961;-64
2023/08/22 08:23:31;;;;;;;;;;;;;;;;;;5082954;28;19943;-64
2023/08/22 08:25:57;;;;;;;;;;;;;;;;;;5089983;28;19928;-65
2023/08/22 08:28:24;;;;;;;;;;;;;;;;;;5096701;28;19920;-64
2023/08/22 08:30:49;;;;;;;;;;;;;;;;;;5094264;28;19932;-64
2023/08/22 08:33:15;;;;;;;;;;;;;;;;;;5102158;28;20037;-64
2023/08/22 08:35:41;;;;;;;;;;;;;;;;;;5096405;28;19924;-64
2023/08/22 08:38:07;;;;;;;;;;;;;;;;;;5088062;28;19947;-64
2023/08/22 08:40:33;;;;;;;;;;;;;;;;;;5090915;28;19928;-63
2023/08/22 08:42:59;;;;;;;;;;;;;;;;;;5089616;28;19921;-63
2023/08/22 08:45:25;;;;;;;;;;;;;;;;;;5084375;28;19924;-63
2023/08/22 08:47:51;;;;;;;;;;;;;;;;;;5089402;28;19931;-63
2023/08/22 08:50:17;;;;;;;;;;;;;;;;;;5084458;28;20366;-63
2023/08/22 08:52:45;;;;;;;;;;;;;;;;;;5087119;28;19928;-63
2023/08/22 08:55:11;;;;;;;;;;;;;;;;;;5057123;28;20579;-63
2023/08/22 08:57:36;;;;;;;;;;;;;;;;;;5071246;28;19927;-63
2023/08/22 09:00:02;;;;;;;;;;;;;;;;;;5084248;28;19924;-63
2023/08/22 09:02:28;;;;;;;;;;;;;;;;;;5094605;28;20335;-62
2023/08/22 09:04:54;;;;;;;;;;;;;;;;;;5082797;28;19943;-63
2023/08/22 09:07:20;;;;;;;;;;;;;;;;;;5087713;28;20600;-63
2023/08/22 09:09:46;;;;;;;;;;;;;;;;;;5090561;28;19982;-63
2023/08/22 09:12:15;;;;;;;;;;;;;;;;;;5093843;28;20297;-63
2023/08/22 09:14:41;;;;;;;;;;;;;;;;;;5091061;28;19999;-63
2023/08/22 09:17:07;;;;;;;;;;;;;;;;;;5087298;28;20016;-63
2023/08/22 09:19:33;;;;;;;;;;;;;;;;;;5090910;28;19927;-63
2023/08/22 09:21:59;;;;;;;;;;;;;;;;;;5090587;28;19977;-63
2023/08/22 09:24:25;;;;;;;;;;;;;;;;;;5083243;28;19924;-63
2023/08/22 09:26:51;;;;;;;;;;;;;;;;;;5084332;28;20544;-63
2023/08/22 09:29:17;;;;;;;;;;;;;;;;;;5084278;28;20010;-63
2023/08/22 09:31:43;;;;;;;;;;;;;;;;;;5083209;28;20282;-63
2023/08/22 09:34:09;;;;;;;;;;;;;;;;;;5087509;28;19998;-63
2023/08/22 09:36:35;;;;;;;;;;;;;;;;;;5081774;28;19928;-63
2023/08/22 09:39:01;;;;;;;;;;;;;;;;;;5088084;28;19928;-63
2023/08/22 09:41:27;;;;;;;;;;;;;;;;;;5086122;28;19935;-63
2023/08/22 09:43:54;;;;;;;;;;;;;;;;;;5087850;28;19924;-63
2023/08/22 09:46:21;;;;;;;;;;;;;;;;;;5084445;28;19931;-63
2023/08/22 09:48:47;;;;;;;;;;;;;;;;;;5094436;28;20000;-63
2023/08/22 09:51:12;;;;;;;;;;;;;;;;;;5092076;28;20424;-63
2023/08/22 09:53:39;;;;;;;;;;;;;;;;;;5101981;28;19920;-62
2023/08/22 09:56:05;;;;;;;;;;;;;;;;;;5062384;28;19999;-62
2023/08/22 09:58:32;;;;;;;;;;;;;;;;;;5086264;28;20338;-63
2023/08/22 10:00:59;;;;;;;;;;;;;;;;;;5084380;28;20038;-62
2023/08/22 10:03:25;;;;;;;;;;;;;;;;;;5069433;28;19929;-62
2023/08/22 10:05:51;;;;;;;;;;;;;;;;;;5089464;28;19928;-62
2023/08/22 10:08:17;;;;;;;;;;;;;;;;;;5094020;28;20336;-62
2023/08/22 10:10:43;;;;;;;;;;;;;;;;;;5051371;28;19928;-62
2023/08/22 10:13:09;;;;;;;;;;;;;;;;;;5071441;28;19982;-62
2023/08/22 10:15:35;;;;;;;;;;;;;;;;;;5089770;28;20015;-62
2023/08/22 10:18:01;;;;;;;;;;;;;;;;;;5101592;28;20281;-62
2023/08/22 10:20:27;;;;;;;;;;;;;;;;;;5090777;28;19928;-62
2023/08/22 10:22:53;;;;;;;;;;;;;;;;;;5099247;28;19920;-63
2023/08/22 10:25:18;;;;;;;;;;;;;;;;;;5092474;28;19920;-63
2023/08/22 10:27:44;;;;;;;;;;;;;;;;;;5088434;28;19927;-63
2023/08/22 10:30:10;;;;;;;;;;;;;;;;;;5099795;28;19968;-63
2023/08/22 10:32:36;;;;;;;;;;;;;;;;;;5102901;28;20373;-63
2023/08/22 10:35:02;;;;;;;;;;;;;;;;;;5083815;28;19964;-63
2023/08/22 10:37:28;;;;;;;;;;;;;;;;;;5070558;28;19988;-63
2023/08/22 10:39:54;;;;;;;;;;;;;;;;;;5089329;28;19936;-62
2023/08/22 10:42:20;;;;;;;;;;;;;;;;;;5091719;28;19927;-62
2023/08/22 10:44:46;;;;;;;;;;;;;;;;;;5073981;28;20076;-62
2023/08/22 10:47:12;;;;;;;;;;;;;;;;;;5083776;28;20772;-63
2023/08/22 10:49:38;;;;;;;;;;;;;;;;;;5078360;28;19976;-62
2023/08/22 10:52:04;;;;;;;;;;;;;;;;;;5083867;28;20332;-62
2023/08/22 10:54:31;;;;;;;;;;;;;;;;;;5061560;28;20309;-62
2023/08/22 10:56:57;;;;;;;;;;;;;;;;;;5087780;28;19924;-62
2023/08/22 10:59:23;;;;;;;;;;;;;;;;;;5071675;28;19924;-62
2023/08/22 11:01:51;;;;;;;;;;;;;;;;;;5069983;28;21278;-62
2023/08/22 11:04:16;;;;;;;;;;;;;;;;;;5064456;28;19954;-62
2023/08/22 11:06:42;;;;;;;;;;;;;;;;;;5089467;28;19977;-63
2023/08/22 11:09:08;;;;;;;;;;;;;;;;;;5087215;28;20326;-63
2023/08/22 11:11:34;;;;;;;;;;;;;;;;;;5091216;28;19924;-63
2023/08/22 11:14:00;;;;;;;;;;;;;;;;;;5090232;28;19920;-63
2023/08/22 11:16:26;;;;;;;;;;;;;;;;;;5091631;28;20400;-63
2023/08/22 11:18:52;;;;;;;;;;;;;;;;;;5091584;28;19950;-63
2023/08/22 11:21:18;;;;;;;;;;;;;;;;;;5090974;28;19931;-62
2023/08/22 11:23:44;;;;;;;;;;;;;;;;;;5091888;28;20039;-63
2023/08/22 11:26:11;;;;;;;;;;;;;;;;;;5092513;28;19928;-63
2023/08/22 11:28:37;;;;;;;;;;;;;;;;;;5077507;28;19925;-63
2023/08/22 11:31:04;;;;;;;;;;;;;;;;;;5073124;28;20399;-63
2023/08/22 11:33:30;;;;;;;;;;;;;;;;;;5090120;28;19962;-63
2023/08/22 11:35:55;;;;;;;;;;;;;;;;;;5108109;28;19920;-63
2023/08/22 11:38:21;;;;;;;;;;;;;;;;;;5086981;28;19935;-64
2023/08/22 11:40:47;;;;;;;;;;;;;;;;;;5084831;28;19960;-63
2023/08/22 11:43:13;;;;;;;;;;;;;;;;;;5074344;28;19973;-63
2023/08/22 11:45:39;;;;;;;;;;;;;;;;;;5068090;28;20351;-63
2023/08/22 11:48:05;;;;;;;;;;;;;;;;;;5089218;28;20416;-63
2023/08/22 11:50:31;;;;;;;;;;;;;;;;;;5089929;28;19924;-63
2023/08/22 11:52:57;;;;;;;;;;;;;;;;;;5091273;28;20324;-64
2023/08/22 11:55:26;;;;;;;;;;;;;;;;;;5093701;28;19966;-63
2023/08/22 11:57:52;;;;;;;;;;;;;;;;;;5094181;28;19964;-64
2023/08/22 12:00:18;;;;;;;;;;;;;;;;;;5094265;28;20592;-63
2023/08/22 12:02:44;;;;;;;;;;;;;;;;;;5089322;28;19924;-63
2023/08/22 12:05:10;;;;;;;;;;;;;;;;;;5090523;28;19931;-63
2023/08/22 12:07:36;;;;;;;;;;;;;;;;;;5085293;28;19924;-63
2023/08/22 12:10:07;;;;;;;;;;;;;;;;;;5088444;28;20002;-63
2023/08/22 12:12:32;;;;;;;;;;;;;;;;;;5075710;28;19924;-63
2023/08/22 12:14:59;;;;;;;;;;;;;;;;;;5085324;28;19988;-63
2023/08/22 12:17:25;;;;;;;;;;;;;;;;;;5098564;28;19924;-63
2023/08/22 12:19:51;;;;;;;;;;;;;;;;;;5092585;28;19973;-63
2023/08/22 12:22:17;;;;;;;;;;;;;;;;;;5090840;28;19920;-63
2023/08/22 12:24:43;;;;;;;;;;;;;;;;;;5089992;28;19931;-63
2023/08/22 12:27:09;;;;;;;;;;;;;;;;;;5065795;28;19924;-63
2023/08/22 12:29:35;;;;;;;;;;;;;;;;;;5093307;28;19924;-63
2023/08/22 12:32:00;;;;;;;;;;;;;;;;;;5092542;28;19920;-63
2023/08/22 12:34:26;;;;;;;;;;;;;;;;;;5093252;28;19927;-63
2023/08/22 12:36:52;;;;;;;;;;;;;;;;;;5090327;28;19924;-64
2023/08/22 12:39:18;;;;;;;;;;;;;;;;;;5092002;28;20373;-64
2023/08/22 12:41:44;;;;;;;;;;;;;;;;;;5065787;28;20016;-64
2023/08/22 12:44:10;;;;;;;;;;;;;;;;;;5090325;28;19974;-64
2023/08/22 12:46:36;;;;;;;;;;;;;;;;;;5091188;28;19971;-63
2023/08/22 12:49:02;;;;;;;;;;;;;;;;;;5092684;28;19934;-63
2023/08/22 12:51:28;;;;;;;;;;;;;;;;;;5094238;28;19942;-63
2023/08/22 12:53:53;;;;;;;;;;;;;;;;;;5096864;28;19924;-63
2023/08/22 12:56:20;;;;;;;;;;;;;;;;;;5095480;28;19927;-63
2023/08/22 12:58:45;;;;;;;;;;;;;;;;;;5088955;28;19963;-63
2023/08/22 13:01:13;;;;;;;;;;;;;;;;;;5086726;28;19987;-63
2023/08/22 13:03:39;;;;;;;;;;;;;;;;;;5089091;28;19924;-63
2023/08/22 13:06:05;;;;;;;;;;;;;;;;;;5090017;28;19921;-63
2023/08/22 13:08:31;;;;;;;;;;;;;;;;;;5092474;28;19923;-63
2023/08/22 13:10:57;;;;;;;;;;;;;;;;;;5072997;28;19968;-63
2023/08/22 13:13:23;;;;;;;;;;;;;;;;;;5091630;28;20333;-63
2023/08/22 13:15:49;;;;;;;;;;;;;;;;;;5091339;28;20014;-63
2023/08/22 13:18:15;;;;;;;;;;;;;;;;;;5079298;28;20008;-63
2023/08/22 13:20:40;;;;;;;;;;;;;;;;;;5065033;28;20019;-63
2023/08/22 13:23:06;;;;;;;;;;;;;;;;;;5082323;22;19978;-66
2023/08/22 13:25:32;;;;;;;;;;;;;;;;;;5067900;28;19970;-66
2023/08/22 13:27:58;;;;;;;;;;;;;;;;;;5060409;28;19920;-66
2023/08/22 13:30:24;;;;;;;;;;;;;;;;;;5070417;28;20336;-65
2023/08/22 13:32:50;;;;;;;;;;;;;;;;;;5071195;28;19921;-65
2023/08/22 13:35:16;;;;;;;;;;;;;;;;;;5052793;28;20367;-65
2023/08/22 13:37:42;;;;;;;;;;;;;;;;;;5073187;28;20298;-65
2023/08/22 13:40:08;;;;;;;;;;;;;;;;;;5070098;28;20357;-65
2023/08/22 13:42:35;;;;;;;;;;;;;;;;;;5068473;28;19951;-65
2023/08/22 13:45:01;;;;;;;;;;;;;;;;;;5071404;28;19995;-65
2023/08/22 13:47:26;;;;;;;;;;;;;;;;;;5069478;28;20015;-65
2023/08/22 13:49:52;;;;;;;;;;;;;;;;;;5068944;28;19979;-65
2023/08/22 13:52:18;;;;;;;;;;;;;;;;;;5070032;28;19920;-65
2023/08/22 13:54:44;;;;;;;;;;;;;;;;;;5060196;28;19974;-65
2023/08/22 13:57:10;;;;;;;;;;;;;;;;;;5070410;28;20394;-65
2023/08/22 13:59:37;;;;;;;;;;;;;;;;;;5071643;28;19927;-65
2023/08/22 14:02:03;;;;;;;;;;;;;;;;;;5071050;28;19958;-65
2023/08/22 14:04:30;;;;;;;;;;;;;;;;;;5070257;28;19920;-65
2023/08/22 14:06:56;;;;;;;;;;;;;;;;;;5059621;28;19921;-65
2023/08/22 14:09:22;;;;;;;;;;;;;;;;;;5034386;28;20431;-65
2023/08/22 14:11:48;;;;;;;;;;;;;;;;;;5069728;28;19920;-65
2023/08/22 14:14:14;;;;;;;;;;;;;;;;;;5069345;28;20374;-65
2023/08/22 14:16:40;;;;;;;;;;;;;;;;;;5068345;28;19924;-65
2023/08/22 14:19:06;;;;;;;;;;;;;;;;;;5069745;28;19921;-65
2023/08/22 14:21:32;;;;;;;;;;;;;;;;;;5049605;28;19967;-65
2023/08/22 14:23:58;;;;;;;;;;;;;;;;;;5065904;28;19929;-66
2023/08/22 14:26:24;;;;;;;;;;;;;;;;;;5051851;28;20317;-65
2023/08/22 14:28:49;;;;;;;;;;;;;;;;;;5051622;28;20409;-65
2023/08/22 14:31:15;;;;;;;;;;;;;;;;;;5067623;28;20277;-65
2023/08/22 14:33:41;;;;;;;;;;;;;;;;;;5068003;28;19920;-65
2023/08/22 14:36:07;;;;;;;;;;;;;;;;;;5070348;28;19924;-65
2023/08/22 14:38:33;;;;;;;;;;;;;;;;;;5069731;28;19924;-65
2023/08/22 14:40:59;;;;;;;;;;;;;;;;;;5071300;28;20320;-65
2023/08/22 14:43:28;;;;;;;;;;;;;;;;;;5065691;28;20005;-66
2023/08/22 14:45:54;;;;;;;;;;;;;;;;;;5034178;28;19924;-65
2023/08/22 14:48:20;;;;;;;;;;;;;;;;;;5070910;28;20366;-65
2023/08/22 14:50:46;;;;;;;;;;;;;;;;;;5068776;28;19920;-65
2023/08/22 14:53:12;;;;;;;;;;;;;;;;;;5070042;28;19924;-65
2023/08/22 14:55:38;;;;;;;;;;;;;;;;;;5069707;28;19924;-65
2023/08/22 14:58:04;;;;;;;;;;;;;;;;;;5071060;28;20409;-66
2023/08/22 15:00:30;;;;;;;;;;;;;;;;;;5063335;28;19932;-66
2023/08/22 15:02:56;;;;;;;;;;;;;;;;;;5051032;28;20355;-65
2023/08/22 15:05:22;;;;;;;;;;;;;;;;;;5068406;28;20081;-65
2023/08/22 15:07:48;;;;;;;;;;;;;;;;;;5071422;28;19942;-65
2023/08/22 15:10:14;;;;;;;;;;;;;;;;;;5068259;28;19943;-65
2023/08/22 15:12:39;;;;;;;;;;;;;;;;;;5070783;28;20011;-65
2023/08/22 15:15:05;;;;;;;;;;;;;;;;;;5070487;28;19935;-65
2023/08/22 15:17:32;;;;;;;;;;;;;;;;;;5067589;28;20361;-65
2023/08/22 15:19:58;;;;;;;;;;;;;;;;;;5067525;28;20456;-65
2023/08/22 15:22:24;;;;;;;;;;;;;;;;;;5069329;28;20045;-65
2023/08/22 15:24:50;;;;;;;;;;;;;;;;;;5051656;28;20447;-65
2023/08/22 15:27:16;;;;;;;;;;;;;;;;;;5064651;28;19920;-65
2023/08/22 15:29:42;;;;;;;;;;;;;;;;;;5066593;28;19924;-65
2023/08/22 15:32:07;;;;;;;;;;;;;;;;;;5056403;28;19925;-66
2023/08/22 15:34:33;;;;;;;;;;;;;;;;;;5071677;28;19966;-66
2023/08/22 15:36:59;;;;;;;;;;;;;;;;;;5074797;28;19952;-66
2023/08/22 15:39:26;;;;;;;;;;;;;;;;;;5066444;28;19997;-65
2023/08/22 15:41:52;;;;;;;;;;;;;;;;;;5067928;28;20487;-65
2023/08/22 15:44:18;;;;;;;;;;;;;;;;;;5071184;28;19921;-65
2023/08/22 15:46:43;;;;;;;;;;;;;;;;;;5073250;28;19927;-65
2023/08/22 15:49:11;;;;;;;;;;;;;;;;;;5073815;28;20019;-65
2023/08/22 15:51:37;;;;;;;;;;;;;;;;;;5072781;28;20243;-65
2023/08/22 15:54:02;;;;;;;;;;;;;;;;;;5074134;28;19924;-66
2023/08/22 15:56:28;;;;;;;;;;;;;;;;;;5068842;28;19924;-61
2023/08/22 15:58:54;;;;;;;;;;;;;;;;;;5067485;28;19921;-61
2023/08/22 16:01:20;;;;;;;;;;;;;;;;;;5063470;28;19932;-61
2023/08/22 16:03:46;;;;;;;;;;;;;;;;;;5048631;28;19990;-61
2023/08/22 16:06:12;;;;;;;;;;;;;;;;;;5052275;28;19966;-61
2023/08/22 16:08:38;;;;;;;;;;;;;;;;;;5066483;28;19925;-61
2023/08/22 16:11:04;;;;;;;;;;;;;;;;;;5055602;28;20296;-61
2023/08/22 16:13:30;;;;;;;;;;;;;;;;;;5053592;28;20069;-61
2023/08/22 16:15:56;;;;;;;;;;;;;;;;;;5072251;28;20401;-61
2023/08/22 16:18:22;;;;;;;;;;;;;;;;;;5071766;28;19920;-61
2023/08/22 16:20:48;;;;;;;;;;;;;;;;;;5054853;28;19924;-60
2023/08/22 16:23:14;;;;;;;;;;;;;;;;;;5072001;28;19959;-61
2023/08/22 16:25:40;;;;;;;;;;;;;;;;;;5072217;28;20373;-61
2023/08/22 16:28:06;;;;;;;;;;;;;;;;;;5070334;28;20030;-67
2023/08/22 16:30:32;;;;;;;;;;;;;;;;;;5067842;28;19931;-64
2023/08/22 16:32:58;;;;;;;;;;;;;;;;;;5062363;28;19920;-60
2023/08/22 16:35:24;;;;;;;;;;;;;;;;;;5061860;28;19943;-60
2023/08/22 16:37:50;;;;;;;;;;;;;;;;;;5046790;28;19921;-60